createdAt,value
2022-10-15T00:01:44.933Z,27.60
2022-10-15T00:04:13.075Z,21.30
2022-10-15T00:06:41.057Z,22.60
2022-10-15T00:09:09.069Z,22.20
2022-10-15T00:11:37.401Z,19.10
2022-10-15T00:14:05.504Z,20.20
2022-10-15T00:16:33.778Z,20.10
2022-10-15T00:19:02.088Z,20.20
2022-10-15T00:21:30.293Z,24.80
2022-10-15T00:23:58.327Z,21.50
2022-10-15T00:26:28.593Z,19.30
2022-10-15T00:29:02.712Z,19.90
2022-10-15T00:31:32.436Z,22.00
2022-10-15T00:34:02.942Z,23.10
2022-10-15T00:36:34.761Z,20.60
2022-10-15T00:39:06.047Z,25.90
2022-10-15T00:41:38.077Z,18.70
2022-10-15T00:44:21.811Z,19.40
2022-10-15T00:46:54.987Z,19.30
2022-10-15T00:49:31.516Z,25.60
2022-10-15T00:52:05.863Z,19.70
2022-10-15T00:54:39.993Z,23.50
2022-10-15T00:57:09.626Z,20.90
2022-10-15T00:59:43.141Z,17.90
2022-10-15T01:02:12.803Z,26.40
2022-10-15T01:04:42.299Z,23.20
2022-10-15T01:07:11.132Z,21.80
2022-10-15T01:09:42.760Z,16.60
2022-10-15T01:12:26.226Z,23.60
2022-10-15T01:15:11.257Z,19.10
2022-10-15T01:17:48.560Z,18.90
2022-10-15T01:20:41.864Z,24.90
2022-10-15T01:23:34.373Z,18.80
2022-10-15T01:26:54.241Z,22.10
2022-10-15T01:29:40.509Z,23.60
2022-10-15T01:32:14.606Z,18.10
2022-10-15T01:35:18.762Z,22.40
2022-10-15T01:37:57.389Z,16.10
2022-10-15T01:40:32.541Z,16.80
2022-10-15T01:43:07.869Z,18.10
2022-10-15T01:46:03.908Z,18.90
2022-10-15T01:48:44.436Z,22.90
2022-10-15T01:51:18.188Z,19.00
2022-10-15T01:53:47.985Z,18.50
2022-10-15T01:56:21.473Z,22.90
2022-10-15T01:58:53.153Z,21.20
2022-10-15T02:01:22.362Z,19.30
2022-10-15T02:03:53.014Z,32.20
2022-10-15T02:06:43.286Z,25.30
2022-10-15T02:09:25.428Z,23.30
2022-10-15T02:12:12.332Z,25.10
2022-10-15T02:14:52.386Z,23.40
2022-10-15T02:17:28.816Z,20.70
2022-10-15T02:20:20.996Z,23.20
2022-10-15T02:22:56.861Z,22.50
2022-10-15T02:25:28.321Z,24.80
2022-10-15T02:27:58.431Z,22.10
2022-10-15T02:30:30.332Z,21.10
2022-10-15T02:33:00.377Z,25.70
2022-10-15T02:35:29.520Z,25.70
2022-10-15T02:38:03.691Z,27.10
2022-10-15T02:40:36.365Z,28.00
2022-10-15T02:43:09.389Z,30.50
2022-10-15T02:45:38.351Z,30.70
2022-10-15T02:48:07.876Z,34.80
2022-10-15T02:50:36.949Z,33.40
2022-10-15T02:53:06.087Z,37.50
2022-10-15T02:55:35.492Z,40.00
2022-10-15T02:58:03.936Z,37.80
2022-10-15T03:00:32.457Z,41.30
2022-10-15T03:03:01.334Z,44.00
2022-10-15T03:05:29.887Z,36.60
2022-10-15T03:08:00.098Z,35.10
2022-10-15T03:10:29.353Z,36.50
2022-10-15T03:13:03.910Z,30.70
2022-10-15T03:15:32.833Z,26.50
2022-10-15T03:18:01.021Z,30.30
2022-10-15T03:20:29.880Z,25.50
2022-10-15T03:22:58.056Z,27.60
2022-10-15T03:25:26.345Z,30.00
2022-10-15T03:27:59.917Z,26.80
2022-10-15T03:30:37.117Z,24.50
2022-10-15T03:33:05.944Z,28.20
2022-10-15T03:35:34.634Z,36.80
2022-10-15T03:38:03.112Z,33.60
2022-10-15T03:40:32.325Z,34.20
2022-10-15T03:43:09.791Z,32.70
2022-10-15T03:45:37.966Z,28.00
2022-10-15T03:48:14.777Z,22.60
2022-10-15T03:50:42.884Z,23.10
2022-10-15T03:53:11.194Z,23.60
2022-10-15T03:55:39.780Z,25.50
2022-10-15T03:58:07.873Z,22.10
2022-10-15T04:00:44.151Z,23.80
2022-10-15T04:03:12.665Z,27.80
2022-10-15T04:05:40.825Z,29.90
2022-10-15T04:08:10.681Z,30.30
2022-10-15T04:10:41.182Z,35.80
2022-10-15T04:13:09.183Z,27.70
2022-10-15T04:15:40.596Z,28.60
2022-10-15T04:18:14.360Z,34.80
2022-10-15T04:20:43.035Z,37.20
2022-10-15T04:23:21.167Z,29.30
2022-10-15T04:26:07.789Z,27.80
2022-10-15T04:28:36.044Z,31.40
2022-10-15T04:31:04.832Z,30.30
2022-10-15T04:33:33.142Z,27.30
2022-10-15T04:36:07.164Z,23.30
2022-10-15T04:38:54.140Z,28.20
2022-10-15T04:41:35.438Z,28.80
2022-10-15T04:44:06.007Z,28.90
2022-10-15T04:46:34.186Z,29.60
2022-10-15T04:49:25.111Z,25.20
2022-10-15T04:51:53.607Z,31.50
2022-10-15T04:54:29.933Z,37.80
2022-10-15T04:57:00.234Z,34.70
2022-10-15T04:59:28.495Z,30.30
2022-10-15T05:02:15.295Z,38.80
2022-10-15T05:04:44.130Z,41.50
2022-10-15T05:07:12.442Z,32.10
2022-10-15T05:09:46.025Z,30.90
2022-10-15T05:12:15.014Z,27.50
2022-10-15T05:14:43.193Z,29.30
2022-10-15T05:17:17.090Z,36.20
2022-10-15T05:19:45.495Z,34.70
2022-10-15T05:22:19.609Z,40.00
2022-10-15T05:24:52.697Z,39.80
2022-10-15T05:27:41.215Z,32.30
2022-10-15T05:30:10.802Z,43.40
2022-10-15T05:32:44.457Z,31.70
2022-10-15T05:35:14.068Z,31.90
2022-10-15T05:37:56.634Z,28.20
2022-10-15T05:40:24.828Z,19.70
2022-10-15T05:43:07.468Z,24.40
2022-10-15T05:45:35.448Z,21.20
2022-10-15T05:48:05.697Z,20.60
2022-10-15T05:50:33.791Z,35.20
2022-10-15T05:53:03.883Z,24.60
2022-10-15T05:55:35.259Z,23.20
2022-10-15T05:58:04.454Z,20.20
2022-10-15T06:00:32.807Z,21.10
2022-10-15T06:03:00.914Z,26.80
2022-10-15T06:05:29.300Z,31.10
2022-10-15T06:07:57.883Z,37.20
2022-10-15T06:10:25.943Z,29.80
2022-10-15T06:12:54.022Z,40.60
2022-10-15T06:15:22.677Z,42.00
2022-10-15T06:17:54.383Z,44.50
2022-10-15T06:20:22.529Z,35.90
2022-10-15T06:22:50.721Z,22.30
2022-10-15T06:25:18.827Z,28.80
2022-10-15T06:27:46.903Z,18.90
2022-10-15T06:30:14.958Z,26.70
2022-10-15T06:32:53.504Z,28.90
2022-10-15T06:35:23.247Z,21.60
2022-10-15T06:37:52.762Z,23.50
2022-10-15T06:40:21.266Z,19.20
2022-10-15T06:42:50.047Z,17.50
2022-10-15T06:45:21.011Z,20.00
2022-10-15T06:47:50.040Z,20.30
2022-10-15T06:50:18.298Z,28.20
2022-10-15T06:52:46.566Z,18.50
2022-10-15T06:55:15.548Z,18.40
2022-10-15T06:57:44.036Z,23.30
2022-10-15T07:00:16.044Z,27.80
2022-10-15T07:02:44.444Z,23.90
2022-10-15T07:05:12.798Z,22.90
2022-10-15T07:07:41.222Z,29.30
2022-10-15T07:10:09.830Z,29.20
2022-10-15T07:12:41.552Z,28.90
2022-10-15T07:15:10.011Z,27.10
2022-10-15T07:17:39.714Z,41.20
2022-10-15T07:20:08.399Z,32.70
2022-10-15T07:22:36.987Z,31.40
2022-10-15T07:25:06.627Z,33.50
2022-10-15T07:27:35.062Z,37.10
2022-10-15T07:30:05.799Z,33.50
2022-10-15T07:32:36.763Z,69.30
2022-10-15T07:35:05.663Z,52.30
2022-10-15T07:37:33.768Z,50.70
2022-10-15T07:40:02.087Z,55.70
2022-10-15T07:42:30.251Z,61.50
2022-10-15T07:44:58.493Z,44.80
2022-10-15T07:47:27.226Z,49.60
2022-10-15T07:49:55.436Z,56.00
2022-10-15T07:52:24.449Z,56.80
2022-10-15T07:54:52.934Z,69.80
2022-10-15T07:57:21.054Z,81.70
2022-10-15T07:59:49.141Z,95.50
2022-10-15T08:02:18.723Z,66.90
2022-10-15T08:04:46.639Z,73.90
2022-10-15T08:07:15.595Z,61.20
2022-10-15T08:09:44.149Z,56.10
2022-10-15T08:12:12.227Z,47.70
2022-10-15T08:14:40.759Z,42.20
2022-10-15T08:17:09.017Z,47.40
2022-10-15T08:19:37.447Z,25.20
2022-10-15T08:22:05.839Z,35.40
2022-10-15T08:24:34.475Z,34.70
2022-10-15T08:27:02.835Z,27.30
2022-10-15T08:29:31.055Z,22.00
2022-10-15T08:31:59.047Z,22.70
2022-10-15T08:34:28.098Z,24.20
2022-10-15T08:36:56.574Z,37.60
2022-10-15T08:39:24.829Z,39.30
2022-10-15T08:42:03.989Z,34.90
2022-10-15T08:44:46.323Z,57.20
2022-10-15T08:47:23.447Z,43.30
2022-10-15T08:49:56.772Z,52.20
2022-10-15T08:52:50.415Z,36.90
2022-10-15T08:55:22.349Z,31.20
2022-10-15T08:58:02.703Z,34.50
2022-10-15T09:01:02.720Z,29.10
2022-10-15T09:03:45.979Z,49.00
2022-10-15T09:06:20.433Z,43.10
2022-10-15T09:09:04.453Z,47.80
2022-10-15T09:11:51.589Z,40.90
2022-10-15T09:14:24.971Z,39.90
2022-10-15T09:16:53.207Z,34.00
2022-10-15T09:19:24.598Z,38.20
2022-10-15T09:21:53.256Z,30.80
2022-10-15T09:24:28.635Z,40.90
2022-10-15T09:27:10.163Z,35.20
2022-10-15T09:29:58.937Z,34.30
2022-10-15T09:32:40.887Z,26.30
2022-10-15T09:35:26.761Z,28.40
2022-10-15T09:38:04.859Z,28.40
2022-10-15T09:41:16.827Z,25.60
2022-10-15T09:43:49.324Z,31.80
2022-10-15T09:46:17.671Z,32.30
2022-10-15T09:49:36.130Z,24.10
2022-10-15T09:52:16.271Z,25.10
2022-10-15T09:54:48.026Z,23.70
2022-10-15T09:57:20.576Z,26.60
2022-10-15T10:00:01.796Z,21.80
2022-10-15T10:02:41.580Z,21.00
2022-10-15T10:05:19.218Z,24.20
2022-10-15T10:07:47.704Z,19.50
2022-10-15T10:10:31.139Z,16.60
2022-10-15T10:12:59.431Z,17.00
2022-10-15T10:15:42.622Z,21.70
2022-10-15T10:18:25.054Z,20.60
2022-10-15T10:21:06.799Z,16.50
2022-10-15T10:23:39.402Z,20.60
2022-10-15T10:26:10.830Z,22.70
2022-10-15T10:29:04.717Z,17.70
2022-10-15T10:31:43.326Z,31.90
2022-10-15T10:34:17.852Z,34.00
2022-10-15T10:36:52.142Z,33.20
2022-10-15T10:39:27.930Z,21.90
2022-10-15T10:41:57.866Z,19.40
2022-10-15T10:44:30.900Z,26.50
2022-10-15T10:47:08.703Z,23.70
2022-10-15T10:49:47.091Z,20.40
2022-10-15T10:52:24.228Z,21.50
2022-10-15T10:55:02.275Z,20.20
2022-10-15T10:58:00.376Z,19.10
2022-10-15T11:00:45.141Z,20.30
2022-10-15T11:03:33.795Z,21.10
2022-10-15T11:06:20.776Z,19.60
2022-10-15T11:09:00.361Z,22.30
2022-10-15T11:11:31.989Z,20.10
2022-10-15T11:14:17.645Z,22.20
2022-10-15T11:17:24.672Z,24.00
2022-10-15T11:20:37.639Z,20.60
2022-10-15T11:23:42.407Z,25.90
2022-10-15T11:26:34.108Z,26.60
2022-10-15T11:29:16.663Z,20.70
2022-10-15T11:32:14.667Z,23.80
2022-10-15T11:35:16.902Z,30.70
2022-10-15T11:38:13.992Z,24.10
2022-10-15T11:41:02.975Z,26.30
2022-10-15T11:43:47.932Z,28.70
2022-10-15T11:46:28.830Z,29.60
2022-10-15T11:49:03.530Z,26.30
2022-10-15T11:51:55.580Z,29.40
2022-10-15T11:54:44.996Z,31.00
2022-10-15T11:57:17.360Z,32.00
2022-10-15T12:00:00.662Z,27.50
2022-10-15T12:02:36.410Z,25.30
2022-10-15T12:05:18.912Z,23.90
2022-10-15T12:07:51.126Z,26.20
2022-10-15T12:10:36.655Z,28.10
2022-10-15T12:13:28.416Z,28.60
2022-10-15T12:16:28.207Z,36.20
2022-10-15T12:19:08.269Z,33.80
2022-10-15T12:21:38.136Z,26.10
2022-10-15T12:24:37.873Z,25.20
2022-10-15T12:27:16.193Z,32.40
2022-10-15T12:29:49.231Z,32.70
2022-10-15T12:32:28.912Z,32.30
2022-10-15T12:35:00.239Z,29.20
2022-10-15T12:37:32.602Z,26.10
2022-10-15T12:40:05.673Z,31.00
2022-10-15T12:42:36.623Z,33.60
2022-10-15T12:45:08.432Z,32.30
2022-10-15T12:47:48.483Z,30.90
2022-10-15T12:50:23.579Z,26.90
2022-10-15T12:53:02.242Z,32.20
2022-10-15T12:55:34.184Z,25.40
2022-10-15T12:58:25.250Z,27.40
2022-10-15T13:00:53.657Z,26.30
2022-10-15T13:03:34.596Z,24.00
2022-10-15T13:06:21.463Z,26.20
2022-10-15T13:09:29.122Z,30.70
2022-10-15T13:11:59.936Z,26.00
2022-10-15T13:14:36.192Z,32.70
2022-10-15T13:17:23.066Z,33.10
2022-10-15T13:20:08.513Z,32.60
2022-10-15T13:22:37.459Z,23.90
2022-10-15T13:25:16.571Z,28.20
2022-10-15T13:27:44.623Z,32.30
2022-10-15T13:30:15.659Z,30.20
2022-10-15T13:32:49.506Z,31.30
2022-10-15T13:35:22.772Z,30.90
2022-10-15T13:37:51.116Z,29.10
2022-10-15T13:40:26.160Z,24.30
2022-10-15T13:43:17.994Z,24.50
2022-10-15T13:45:48.158Z,24.10
2022-10-15T13:48:23.198Z,22.80
2022-10-15T13:53:34.924Z,25.80
2022-10-15T13:56:28.009Z,27.30
2022-10-15T13:58:58.604Z,26.20
2022-10-15T14:01:29.044Z,22.00
2022-10-15T14:03:59.802Z,22.10
2022-10-15T14:06:32.428Z,23.20
2022-10-15T14:09:27.077Z,26.80
2022-10-15T14:11:59.200Z,23.20
2022-10-15T14:14:44.181Z,21.40
2022-10-15T14:17:26.923Z,22.80
2022-10-15T14:20:25.732Z,21.80
2022-10-15T14:22:51.659Z,26.40
2022-10-15T14:25:25.960Z,26.80
2022-10-15T14:27:54.412Z,34.20
2022-10-15T14:30:34.436Z,23.50
2022-10-15T14:33:03.007Z,24.70
2022-10-15T14:35:34.349Z,22.20
2022-10-15T14:38:06.450Z,26.80
2022-10-15T14:40:34.484Z,21.80
2022-10-15T14:43:06.355Z,24.10
2022-10-15T14:45:55.257Z,25.30
2022-10-15T14:48:27.325Z,24.50
2022-10-15T14:51:00.283Z,28.00
2022-10-15T14:53:31.962Z,29.50
2022-10-15T14:56:03.719Z,32.40
2022-10-15T14:58:31.919Z,28.00
2022-10-15T15:01:03.234Z,25.40
2022-10-15T15:03:39.998Z,24.90
2022-10-15T15:06:09.322Z,26.10
2022-10-15T15:08:37.679Z,24.50
2022-10-15T15:11:13.249Z,26.80
2022-10-15T15:13:44.136Z,29.90
2022-10-15T15:16:15.430Z,26.10
2022-10-15T15:18:44.262Z,29.10
2022-10-15T15:21:20.285Z,28.70
2022-10-15T15:23:49.249Z,26.20
2022-10-15T15:26:17.807Z,27.90
2022-10-15T15:28:46.146Z,24.30
2022-10-15T15:31:18.053Z,22.80
2022-10-15T15:33:46.543Z,27.50
2022-10-15T15:36:20.604Z,26.70
2022-10-15T15:38:53.184Z,21.50
2022-10-15T15:41:24.240Z,26.00
2022-10-15T15:43:55.199Z,32.80
2022-10-15T15:46:23.550Z,35.30
2022-10-15T15:48:51.765Z,28.90
2022-10-15T15:51:21.860Z,25.90
2022-10-15T15:53:50.150Z,40.00
2022-10-15T15:56:18.346Z,30.30
2022-10-15T15:58:48.672Z,31.10
2022-10-15T16:01:18.338Z,31.10
2022-10-15T16:03:46.626Z,31.10
2022-10-15T16:06:14.940Z,29.00
2022-10-15T16:08:43.071Z,29.10
2022-10-15T16:11:11.282Z,33.90
2022-10-15T16:13:41.676Z,32.70
2022-10-15T16:16:10.942Z,29.80
2022-10-15T16:18:39.342Z,36.70
2022-10-15T16:21:07.561Z,28.10
2022-10-15T16:23:36.063Z,30.60
2022-10-15T16:26:04.132Z,34.00
2022-10-15T16:28:32.261Z,40.10
2022-10-15T16:31:21.125Z,36.80
2022-10-15T16:33:49.246Z,38.20
2022-10-15T16:36:18.423Z,36.20
2022-10-15T16:38:47.602Z,40.00
2022-10-15T16:41:18.855Z,34.60
2022-10-15T16:43:48.067Z,37.80
2022-10-15T16:46:19.311Z,39.80
2022-10-15T16:48:55.931Z,38.80
2022-10-15T16:51:24.356Z,35.70
2022-10-15T16:53:54.785Z,33.30
2022-10-15T16:56:28.615Z,34.30
2022-10-15T16:58:57.533Z,38.30
2022-10-15T17:01:28.683Z,38.50
2022-10-15T17:03:58.773Z,39.00
2022-10-15T17:06:29.206Z,35.60
2022-10-15T17:08:59.037Z,42.40
2022-10-15T17:11:30.112Z,43.30
2022-10-15T17:14:01.653Z,47.10
2022-10-15T17:16:37.493Z,39.10
2022-10-15T17:19:05.927Z,34.50
2022-10-15T17:21:35.351Z,35.40
2022-10-15T17:24:05.706Z,37.30
2022-10-15T17:26:38.707Z,32.80
2022-10-15T17:29:11.047Z,35.40
2022-10-15T17:31:40.050Z,29.60
2022-10-15T17:34:11.036Z,29.40
2022-10-15T17:36:45.497Z,31.50
2022-10-15T17:39:20.550Z,32.40
2022-10-15T17:41:50.916Z,31.40
2022-10-15T17:44:20.308Z,26.60
2022-10-15T17:49:28.519Z,34.10
2022-10-15T17:51:56.521Z,29.60
2022-10-15T17:54:24.954Z,29.00
2022-10-15T17:56:53.048Z,33.10
2022-10-15T17:59:21.057Z,31.30
2022-10-15T18:01:58.454Z,35.70
2022-10-15T18:04:30.896Z,36.10
2022-10-15T18:06:59.250Z,32.70
2022-10-15T18:09:28.381Z,38.70
2022-10-15T18:12:01.052Z,39.50
2022-10-15T18:14:32.138Z,44.30
2022-10-15T18:17:00.209Z,33.80
2022-10-15T18:19:28.897Z,31.60
2022-10-15T18:21:57.998Z,30.20
2022-10-15T18:24:26.738Z,31.90
2022-10-15T18:26:55.345Z,36.00
2022-10-15T18:29:25.601Z,35.50
2022-10-15T18:31:57.643Z,41.30
2022-10-15T18:34:28.396Z,38.60
2022-10-15T18:36:57.019Z,37.40
2022-10-15T18:39:26.767Z,37.00
2022-10-15T18:41:55.006Z,37.20
2022-10-15T18:44:24.050Z,34.20
2022-10-15T18:46:52.644Z,35.20
2022-10-15T18:49:21.091Z,41.40
2022-10-15T18:51:52.081Z,36.60
2022-10-15T18:54:22.175Z,40.00
2022-10-15T18:56:51.201Z,38.70
2022-10-15T18:59:20.837Z,43.60
2022-10-15T19:01:50.589Z,41.70
2022-10-15T19:04:20.524Z,44.30
2022-10-15T19:06:51.276Z,46.10
2022-10-15T19:09:22.983Z,39.30
2022-10-15T19:11:53.755Z,30.10
2022-10-15T19:14:22.954Z,37.90
2022-10-15T19:16:51.832Z,34.40
2022-10-15T19:19:22.438Z,39.20
2022-10-15T19:21:51.920Z,34.10
2022-10-15T19:24:21.609Z,31.50
2022-10-15T19:26:51.698Z,41.80
2022-10-15T19:29:20.475Z,37.20
2022-10-15T19:31:54.909Z,42.90
2022-10-15T19:34:23.979Z,44.90
2022-10-15T19:36:52.079Z,46.80
2022-10-15T19:39:22.238Z,38.50
2022-10-15T19:41:52.443Z,39.10
2022-10-15T19:44:25.696Z,49.00
2022-10-15T19:46:56.228Z,39.50
2022-10-15T19:49:25.711Z,41.90
2022-10-15T19:51:53.840Z,39.40
2022-10-15T19:54:21.951Z,44.70
2022-10-15T19:56:50.016Z,44.00
2022-10-15T19:59:18.666Z,34.20
2022-10-15T20:01:46.905Z,45.60
2022-10-15T20:04:15.098Z,44.00
2022-10-15T20:06:43.972Z,46.60
2022-10-15T20:09:12.368Z,47.50
2022-10-15T20:11:40.406Z,42.00
2022-10-15T20:14:09.038Z,36.60
2022-10-15T20:16:37.403Z,47.50
2022-10-15T20:19:06.560Z,33.90
2022-10-15T20:21:35.433Z,30.70
2022-10-15T20:24:04.897Z,36.20
2022-10-15T20:26:33.614Z,41.70
2022-10-15T20:29:02.232Z,35.30
2022-10-15T20:31:33.386Z,40.10
2022-10-15T20:34:03.392Z,30.60
2022-10-15T20:36:32.121Z,31.10
2022-10-15T20:39:01.662Z,41.80
2022-10-15T20:41:30.272Z,35.40
2022-10-15T20:43:58.795Z,33.10
2022-10-15T20:46:37.006Z,35.70
2022-10-15T20:49:14.780Z,40.10
2022-10-15T20:51:44.935Z,35.40
2022-10-15T20:54:15.732Z,39.40
2022-10-15T20:56:43.625Z,41.70
2022-10-15T20:59:12.317Z,39.70
2022-10-15T21:01:40.531Z,40.00
2022-10-15T21:04:08.884Z,48.70
2022-10-15T21:06:36.867Z,41.20
2022-10-15T21:09:04.918Z,44.40
2022-10-15T21:11:32.985Z,38.10
2022-10-15T21:14:01.838Z,37.70
2022-10-15T21:19:04.066Z,39.70
2022-10-15T21:21:32.806Z,40.10
2022-10-15T21:24:01.379Z,35.50
2022-10-15T21:26:29.649Z,32.00
2022-10-15T21:28:59.990Z,38.90
2022-10-15T21:31:28.279Z,33.60
2022-10-15T21:33:56.559Z,42.20
2022-10-15T21:36:27.097Z,32.30
2022-10-15T21:39:03.931Z,35.40
2022-10-15T21:41:33.463Z,36.70
2022-10-15T21:44:02.405Z,40.20
2022-10-15T21:46:31.758Z,37.50
2022-10-15T21:49:01.145Z,55.40
2022-10-15T21:51:31.830Z,34.00
2022-10-15T21:54:01.908Z,37.80
2022-10-15T21:56:29.964Z,41.90
2022-10-15T21:58:59.269Z,36.10
2022-10-15T22:01:33.393Z,37.50
2022-10-15T22:04:10.214Z,37.70
2022-10-15T22:06:40.491Z,36.50
2022-10-15T22:09:10.468Z,34.00
2022-10-15T22:11:40.430Z,39.70
2022-10-15T22:14:11.694Z,36.40
2022-10-15T22:16:41.066Z,32.50
2022-10-15T22:19:13.679Z,35.50
2022-10-15T22:21:42.405Z,31.30
2022-10-15T22:24:14.983Z,32.70
2022-10-15T22:26:45.789Z,34.50
2022-10-15T22:29:25.930Z,32.90
2022-10-15T22:31:54.689Z,33.30
2022-10-15T22:34:23.730Z,30.20
2022-10-15T22:36:52.218Z,29.80
2022-10-15T22:39:20.253Z,38.10
2022-10-15T22:41:49.109Z,32.30
2022-10-15T22:44:20.748Z,39.00
2022-10-15T22:46:49.922Z,36.20
2022-10-15T22:49:20.982Z,31.50
2022-10-15T22:51:50.588Z,36.70
2022-10-15T22:54:22.132Z,37.90
2022-10-15T22:56:51.288Z,38.60
2022-10-15T22:59:20.279Z,35.90
2022-10-15T23:01:48.514Z,33.90
2022-10-15T23:04:17.228Z,35.00
2022-10-15T23:06:45.238Z,32.40
2022-10-15T23:09:17.934Z,36.80
2022-10-15T23:11:47.195Z,40.30
2022-10-15T23:14:16.584Z,39.60
2022-10-15T23:16:47.029Z,35.40
2022-10-15T23:19:18.485Z,32.60
2022-10-15T23:21:52.756Z,30.10
2022-10-15T23:24:23.093Z,25.80
2022-10-15T23:26:51.777Z,32.60
2022-10-15T23:29:22.444Z,29.80
2022-10-15T23:31:52.550Z,29.20
2022-10-15T23:34:24.015Z,27.20
2022-10-15T23:36:52.950Z,29.80
2022-10-15T23:39:23.890Z,28.40
2022-10-15T23:41:52.680Z,30.10
2022-10-15T23:44:21.558Z,33.60
2022-10-15T23:46:49.361Z,29.00
2022-10-15T23:49:17.603Z,39.70
2022-10-15T23:51:45.978Z,37.60
2022-10-15T23:54:17.849Z,32.30
2022-10-15T23:56:47.406Z,35.20
2022-10-15T23:59:17.181Z,34.90
